Hovedside
METAR-TAF:

METAR-TAF

Lufthavner :

Sundsvall-Härnösand, Sverige

Sundsvall Timrå lufthavn

breddegrad: 62-32N, lengdegrad: 017-27E, høyde over havet: 4 m

Gjeldene værobservasjon

Denne rapporten ble laget for 44 minutter siden, klokken 09:50 UTC
Vind 8 kt fra Vest-nordvest, skiftende mellom Vest-sørvest og Nord-nordvest
Temperatur 15°C
Luftfuktighet 55%
Trykk 989 hPa
Sikt 10 km eller mer

METAR: ESNN 250950Z AUTO 29008KT 250V330 9999 SCT043/// BKN055/// 15/06 Q0989

Tid: 12:34 (10:34 UTC)


TAF: fraværende

Værobservasjoner og værvarsel for over 4000 flyplasser (METAR- og TAF-rapporter).

Tilgjengelige stasjoner er representert av de røde og gule prikkene på kartet.

Hold musepekeren over prikken for å se navnet på stasjonen.

Klikk så for å se værobservasjoner og -varsler.

For å forandre kartet kan du klikke på den grønne knappen med svart kryss for å zoome inn, på den grønne knappen med strek for å zoome ut, eller på de grønne pilene for å se tilstøtende kart.


METAR-TAF: